Time;durP1;ratioP1;P1;durP2;ratioP2;P2;SDS_P1;SDS_P2;PMS_P1;PMS_P2;Temp;Humidity;BMP_temperature;BMP_pressure;BME280_temperature;BME280_humidity;BME280_pressure;Samples;Min_cycle;Max_cycle;Signal;HPM_P1;HPM_P2
2024/04/01 00:02:51;;;;;;;5.68;1.63;;;;;;;;;;6196336;23;20235;-90
2024/04/01 00:05:57;;;;;;;8.95;1.77;;;;;;;;;;6195478;23;20200;-89
2024/04/01 00:09:03;;;;;;;5.70;1.30;;;;;;;;;;6196305;23;20175;-90
2024/04/01 00:12:07;;;;;;;6.47;1.45;;;;;;;;;;6194793;23;20179;-90
2024/04/01 00:15:12;;;;;;;5.65;1.70;;;;;;;;;;6194347;23;20217;-90
2024/04/01 00:18:17;;;;;;;5.55;1.75;;;;;;;;;;6192897;23;20168;-91
2024/04/01 00:21:23;;;;;;;3.40;1.13;;;;;;;;;;6194361;23;20203;-90
2024/04/01 00:24:29;;;;;;;6.38;1.38;;;;;;;;;;6194156;23;20288;-91
2024/04/01 00:27:35;;;;;;;4.53;1.23;;;;;;;;;;6193581;23;20612;-92
2024/04/01 00:30:39;;;;;;;5.32;1.30;;;;;;;;;;6193672;23;20212;-91
2024/04/01 00:33:45;;;;;;;3.97;1.38;;;;;;;;;;6194401;23;20168;-91
2024/04/01 00:36:50;;;;;;;2.65;1.20;;;;;;;;;;6193940;23;20231;-91
2024/04/01 00:39:55;;;;;;;3.03;1.02;;;;;;;;;;6192635;23;20171;-91
2024/04/01 00:43:03;;;;;;;4.55;1.40;;;;;;;;;;6194137;23;20175;-91
2024/04/01 00:46:08;;;;;;;4.85;1.48;;;;;;;;;;6192941;23;20199;-90
2024/04/01 00:49:12;;;;;;;3.72;1.25;;;;;;;;;;6193564;23;20531;-91
2024/04/01 00:52:19;;;;;;;5.53;1.33;;;;;;;;;;6194042;23;20211;-90
2024/04/01 00:55:23;;;;;;;6.25;2.63;;;;;;;;;;6194981;23;20172;-90
2024/04/01 00:58:28;;;;;;;3.47;1.30;;;;;;;;;;6194775;23;20168;-90
2024/04/01 01:01:32;;;;;;;5.95;1.40;;;;;;;;;;6193022;23;20230;-91
2024/04/01 01:04:38;;;;;;;2.33;1.20;;;;;;;;;;6192412;23;20171;-92
2024/04/01 01:07:45;;;;;;;3.65;1.30;;;;;;;;;;6192524;23;20176;-91
2024/04/01 01:10:49;;;;;;;3.70;1.10;;;;;;;;;;6192127;23;20211;-91
2024/04/01 01:13:54;;;;;;;6.20;1.20;;;;;;;;;;6190611;23;20168;-91
2024/04/01 01:16:58;;;;;;;5.60;1.17;;;;;;;;;;6190706;23;20172;-91
2024/04/01 01:20:03;;;;;;;6.53;1.15;;;;;;;;;;6192122;23;20215;-90
2024/04/01 01:23:09;;;;;;;2.10;1.00;;;;;;;;;;6192400;23;20163;-92
2024/04/01 01:26:14;;;;;;;3.38;1.20;;;;;;;;;;6193947;23;20172;-90
2024/04/01 01:29:18;;;;;;;7.45;1.00;;;;;;;;;;6195448;23;20171;-91
2024/04/01 01:32:25;;;;;;;7.93;1.20;;;;;;;;;;6193868;23;20670;-91
2024/04/01 01:35:35;;;;;;;2.78;1.00;;;;;;;;;;6195462;23;20172;-91
2024/04/01 01:38:42;;;;;;;5.38;1.15;;;;;;;;;;6194288;23;20459;-91
2024/04/01 01:41:46;;;;;;;3.60;1.10;;;;;;;;;;6194740;23;20199;-91
2024/04/01 01:44:51;;;;;;;6.10;1.48;;;;;;;;;;6195128;23;20665;-91
2024/04/01 01:47:55;;;;;;;3.75;1.27;;;;;;;;;;6193334;23;20172;-91
2024/04/01 01:51:01;;;;;;;5.72;1.92;;;;;;;;;;6195273;23;20168;-91
2024/04/01 01:54:07;;;;;;;5.95;1.65;;;;;;;;;;6211268;23;20291;-91
2024/04/01 01:57:12;;;;;;;2.83;1.45;;;;;;;;;;6195116;23;20171;-91
2024/04/01 02:00:17;;;;;;;12.30;1.23;;;;;;;;;;6193567;23;20264;-91
2024/04/01 02:03:22;;;;;;;2.95;1.10;;;;;;;;;;6193812;23;20192;-91
2024/04/01 02:06:26;;;;;;;4.05;1.30;;;;;;;;;;6195790;23;20229;-91
2024/04/01 02:09:31;;;;;;;8.63;1.40;;;;;;;;;;6193920;23;20167;-91
2024/04/01 02:12:38;;;;;;;7.22;1.45;;;;;;;;;;6195526;23;20151;-91
2024/04/01 02:15:44;;;;;;;3.15;1.05;;;;;;;;;;6194834;23;20175;-92
2024/04/01 02:18:50;;;;;;;7.38;1.73;;;;;;;;;;6195740;23;20168;-90
2024/04/01 02:21:55;;;;;;;5.97;2.00;;;;;;;;;;6194427;23;20191;-90
2024/04/01 02:25:01;;;;;;;8.65;1.70;;;;;;;;;;6194684;23;20211;-92
2024/04/01 02:28:06;;;;;;;15.35;3.47;;;;;;;;;;6194969;23;20159;-91
2024/04/01 02:31:10;;;;;;;10.77;2.83;;;;;;;;;;6195448;23;20203;-91
2024/04/01 02:34:14;;;;;;;11.10;3.05;;;;;;;;;;6196895;23;20283;-91
2024/04/01 02:37:19;;;;;;;10.10;1.75;;;;;;;;;;6194727;23;20176;-91
2024/04/01 02:40:26;;;;;;;7.45;1.52;;;;;;;;;;6197402;23;20156;-91
2024/04/01 02:43:32;;;;;;;6.85;1.88;;;;;;;;;;6197249;23;20168;-91
2024/04/01 02:46:36;;;;;;;13.65;3.53;;;;;;;;;;6195759;23;20172;-92
2024/04/01 02:49:41;;;;;;;10.05;2.97;;;;;;;;;;6196054;23;20289;-91
2024/04/01 02:52:47;;;;;;;10.55;2.90;;;;;;;;;;6195288;23;20167;-90
2024/04/01 02:55:54;;;;;;;9.73;3.05;;;;;;;;;;6195475;23;20171;-91
2024/04/01 02:59:02;;;;;;;14.48;3.60;;;;;;;;;;6193919;23;20168;-90
2024/04/01 03:02:10;;;;;;;7.47;1.70;;;;;;;;;;6194970;23;20259;-91
2024/04/01 03:05:14;;;;;;;4.80;1.85;;;;;;;;;;6194643;23;20172;-91
2024/04/01 03:08:19;;;;;;;13.48;1.90;;;;;;;;;;6194959;23;20799;-90
2024/04/01 03:11:25;;;;;;;8.80;2.17;;;;;;;;;;6193204;23;20171;-90
2024/04/01 03:14:30;;;;;;;8.40;2.17;;;;;;;;;;6192723;23;20168;-90
2024/04/01 03:17:34;;;;;;;10.75;2.10;;;;;;;;;;6194011;23;20215;-90
2024/04/01 03:20:40;;;;;;;10.65;1.80;;;;;;;;;;6194499;23;20167;-90
2024/04/01 03:23:45;;;;;;;7.32;2.10;;;;;;;;;;6194686;23;20175;-90
2024/04/01 03:26:51;;;;;;;5.75;1.30;;;;;;;;;;6195934;23;20252;-89
2024/04/01 03:29:57;;;;;;;12.10;2.03;;;;;;;;;;6195507;23;20167;-89
2024/04/01 03:33:01;;;;;;;6.68;1.30;;;;;;;;;;6196292;23;20168;-91
2024/04/01 03:36:07;;;;;;;11.68;1.95;;;;;;;;;;6194980;23;20246;-90
2024/04/01 03:39:13;;;;;;;9.15;1.70;;;;;;;;;;6194383;23;20182;-90
2024/04/01 03:42:20;;;;;;;12.60;2.20;;;;;;;;;;6193873;23;20191;-91
2024/04/01 03:45:25;;;;;;;11.02;2.25;;;;;;;;;;6194570;23;20148;-90
2024/04/01 03:48:29;;;;;;;11.10;1.60;;;;;;;;;;6194190;23;20238;-90
2024/04/01 03:51:34;;;;;;;11.43;1.90;;;;;;;;;;6194378;23;20230;-90
2024/04/01 03:54:38;;;;;;;8.10;1.60;;;;;;;;;;6195929;23;20180;-92
2024/04/01 03:57:45;;;;;;;11.20;1.80;;;;;;;;;;6193661;23;20163;-91
2024/04/01 04:00:50;;;;;;;9.88;1.42;;;;;;;;;;6193996;23;20199;-91
2024/04/01 04:03:55;;;;;;;6.78;1.63;;;;;;;;;;6193950;23;20207;-90
2024/04/01 04:06:59;;;;;;;12.35;1.80;;;;;;;;;;6195624;23;20147;-91
2024/04/01 04:10:05;;;;;;;6.93;1.63;;;;;;;;;;6195790;23;20241;-91
2024/04/01 04:13:10;;;;;;;10.40;1.42;;;;;;;;;;6193840;23;20184;-91
2024/04/01 04:16:16;;;;;;;9.63;1.77;;;;;;;;;;6194795;23;20160;-91
2024/04/01 04:19:20;;;;;;;17.73;3.97;;;;;;;;;;6195173;23;20310;-92
2024/04/01 04:22:26;;;;;;;15.98;2.88;;;;;;;;;;6196336;23;20184;-91
2024/04/01 04:25:31;;;;;;;18.65;4.40;;;;;;;;;;6195464;23;20164;-91
2024/04/01 04:28:38;;;;;;;12.57;2.50;;;;;;;;;;6194087;23;20168;-90
2024/04/01 04:31:45;;;;;;;11.13;2.03;;;;;;;;;;6194182;23;20171;-91
2024/04/01 04:34:49;;;;;;;9.70;1.90;;;;;;;;;;6211432;23;20175;-91
2024/04/01 04:37:55;;;;;;;19.25;2.50;;;;;;;;;;6193748;23;20168;-91
2024/04/01 04:40:59;;;;;;;10.05;1.90;;;;;;;;;;6194827;23;20279;-91
2024/04/01 04:44:06;;;;;;;7.88;1.85;;;;;;;;;;6195000;23;20268;-91
2024/04/01 04:47:11;;;;;;;12.75;1.88;;;;;;;;;;6194171;23;20168;-91
2024/04/01 04:50:15;;;;;;;11.52;1.88;;;;;;;;;;6195207;23;20164;-91
2024/04/01 04:53:20;;;;;;;12.05;1.83;;;;;;;;;;6193594;23;20191;-92
2024/04/01 04:56:25;;;;;;;8.30;1.80;;;;;;;;;;6211702;23;20287;-90
2024/04/01 04:59:33;;;;;;;13.50;1.88;;;;;;;;;;6195233;23;20160;-90
2024/04/01 05:02:38;;;;;;;12.05;2.35;;;;;;;;;;6195408;23;20226;-91
2024/04/01 05:05:42;;;;;;;9.88;2.42;;;;;;;;;;6196434;23;20167;-90
2024/04/01 05:08:48;;;;;;;9.32;2.63;;;;;;;;;;6195076;23;20199;-91
2024/04/01 05:11:53;;;;;;;8.40;1.60;;;;;;;;;;6195573;23;20326;-91
2024/04/01 05:14:59;;;;;;;10.00;1.88;;;;;;;;;;6197850;23;20204;-91
2024/04/01 05:18:05;;;;;;;13.88;1.88;;;;;;;;;;6197615;23;20167;-90
2024/04/01 05:21:10;;;;;;;11.45;2.00;;;;;;;;;;6195917;23;20164;-91
2024/04/01 05:24:16;;;;;;;14.32;2.47;;;;;;;;;;6196528;23;20291;-91
2024/04/01 05:27:21;;;;;;;9.07;1.90;;;;;;;;;;6193881;23;20175;-91
2024/04/01 05:30:26;;;;;;;8.13;1.80;;;;;;;;;;6196108;23;20220;-91
2024/04/01 05:33:33;;;;;;;11.60;2.05;;;;;;;;;;6196123;23;20176;-91
2024/04/01 05:36:38;;;;;;;8.18;1.70;;;;;;;;;;6194986;23;20172;-91
2024/04/01 05:39:43;;;;;;;8.57;1.85;;;;;;;;;;6197717;23;20160;-91
2024/04/01 05:42:48;;;;;;;5.95;1.60;;;;;;;;;;6195213;23;20679;-90
2024/04/01 05:45:53;;;;;;;13.10;2.15;;;;;;;;;;6196218;23;20246;-91
2024/04/01 05:48:59;;;;;;;10.13;2.10;;;;;;;;;;6196784;23;20487;-90
2024/04/01 05:52:05;;;;;;;11.05;2.10;;;;;;;;;;6195941;23;20542;-91
2024/04/01 05:55:10;;;;;;;7.57;1.35;;;;;;;;;;6195892;23;20255;-92
2024/04/01 05:58:15;;;;;;;8.25;1.42;;;;;;;;;;6196159;23;20191;-91
2024/04/01 06:01:21;;;;;;;12.77;1.90;;;;;;;;;;6195546;23;20256;-92
2024/04/01 06:04:27;;;;;;;8.75;1.60;;;;;;;;;;6197318;23;20167;-90
2024/04/01 06:07:32;;;;;;;6.22;1.90;;;;;;;;;;6197976;23;20183;-90
2024/04/01 06:10:38;;;;;;;9.45;1.73;;;;;;;;;;6196002;23;20747;-91
2024/04/01 06:13:44;;;;;;;10.88;1.80;;;;;;;;;;6196862;23;20215;-91
2024/04/01 06:16:50;;;;;;;10.43;2.00;;;;;;;;;;6197598;23;20148;-91
2024/04/01 06:19:55;;;;;;;12.32;2.33;;;;;;;;;;6196949;23;20215;-91
2024/04/01 06:23:00;;;;;;;10.55;2.10;;;;;;;;;;6197373;23;20241;-90
2024/04/01 06:26:05;;;;;;;10.70;2.53;;;;;;;;;;6198416;23;20168;-92
2024/04/01 06:29:10;;;;;;;9.82;2.38;;;;;;;;;;6196791;23;20164;-92
2024/04/01 06:32:21;;;;;;;14.25;2.00;;;;;;;;;;6198678;23;20168;-91
2024/04/01 06:35:25;;;;;;;7.13;2.10;;;;;;;;;;6198675;23;20167;-92
2024/04/01 06:38:30;;;;;;;13.70;2.28;;;;;;;;;;6197865;23;20167;-91
2024/04/01 06:41:34;;;;;;;12.52;2.30;;;;;;;;;;6197172;23;20179;-90
2024/04/01 06:44:40;;;;;;;13.90;3.08;;;;;;;;;;6197899;23;20184;-89
2024/04/01 06:47:47;;;;;;;14.23;2.72;;;;;;;;;;6198873;23;20164;-91
2024/04/01 06:50:52;;;;;;;12.88;2.45;;;;;;;;;;6197612;23;20163;-91
2024/04/01 06:53:56;;;;;;;14.77;2.35;;;;;;;;;;6196960;23;20176;-91
2024/04/01 06:57:02;;;;;;;8.95;1.98;;;;;;;;;;6197013;23;20167;-91
2024/04/01 07:00:07;;;;;;;10.93;2.38;;;;;;;;;;6195953;23;20176;-90
2024/04/01 07:03:13;;;;;;;11.52;2.00;;;;;;;;;;6196992;23;20195;-91
2024/04/01 07:06:18;;;;;;;14.05;2.15;;;;;;;;;;6197871;23;20535;-91
2024/04/01 07:09:24;;;;;;;9.05;2.05;;;;;;;;;;6198841;23;20195;-91
2024/04/01 07:12:29;;;;;;;7.95;1.88;;;;;;;;;;6199525;23;20167;-90
2024/04/01 07:15:36;;;;;;;16.95;1.98;;;;;;;;;;6199930;23;20164;-91
2024/04/01 07:18:41;;;;;;;10.57;1.92;;;;;;;;;;6195880;23;20591;-90
2024/04/01 07:21:47;;;;;;;9.77;1.77;;;;;;;;;;6198945;23;20184;-90
2024/04/01 07:24:52;;;;;;;11.55;3.47;;;;;;;;;;6196171;23;20167;-91
2024/04/01 07:27:56;;;;;;;12.48;3.25;;;;;;;;;;6197183;23;20176;-91
2024/04/01 07:31:05;;;;;;;9.15;2.58;;;;;;;;;;6195191;23;20214;-90
2024/04/01 07:34:12;;;;;;;11.65;3.13;;;;;;;;;;6196684;23;20172;-91
2024/04/01 07:37:16;;;;;;;22.48;2.97;;;;;;;;;;6195773;23;20176;-90
2024/04/01 07:40:21;;;;;;;15.10;2.60;;;;;;;;;;6196741;23;20217;-90
2024/04/01 07:43:25;;;;;;;9.05;1.85;;;;;;;;;;6197546;23;20198;-92
2024/04/01 07:46:31;;;;;;;13.93;2.15;;;;;;;;;;6199011;23;20168;-91
2024/04/01 07:49:36;;;;;;;10.60;2.08;;;;;;;;;;6197736;23;20272;-93
2024/04/01 07:52:41;;;;;;;14.02;2.03;;;;;;;;;;6197589;23;20176;-91
2024/04/01 07:55:45;;;;;;;10.05;1.95;;;;;;;;;;6214441;23;20184;-92
2024/04/01 07:58:51;;;;;;;12.82;2.15;;;;;;;;;;6197906;23;20231;-91
2024/04/01 08:01:55;;;;;;;11.35;2.22;;;;;;;;;;6198123;23;20551;-92
2024/04/01 08:05:01;;;;;;;14.55;2.47;;;;;;;;;;6195419;23;20215;-91
2024/04/01 08:08:05;;;;;;;11.00;2.22;;;;;;;;;;6192559;23;20231;-92
2024/04/01 08:11:10;;;;;;;11.55;1.95;;;;;;;;;;6196568;23;20175;-91
2024/04/01 08:14:15;;;;;;;9.00;1.90;;;;;;;;;;6194684;23;20167;-91
2024/04/01 08:17:20;;;;;;;15.38;2.10;;;;;;;;;;6194450;23;20175;-93
2024/04/01 08:20:26;;;;;;;10.07;1.75;;;;;;;;;;6194659;23;20207;-90
2024/04/01 08:23:31;;;;;;;9.40;1.67;;;;;;;;;;6195018;23;20211;-92
2024/04/01 08:26:36;;;;;;;9.20;1.75;;;;;;;;;;6196534;23;20171;-92
2024/04/01 08:29:40;;;;;;;10.32;2.10;;;;;;;;;;6196219;23;20670;-90
2024/04/01 08:32:45;;;;;;;10.73;2.17;;;;;;;;;;6196048;23;20266;-92
2024/04/01 08:35:52;;;;;;;9.43;1.65;;;;;;;;;;6199022;23;20187;-93
2024/04/01 08:38:57;;;;;;;14.60;2.00;;;;;;;;;;6199438;23;20227;-93
2024/04/01 08:42:02;;;;;;;12.25;1.83;;;;;;;;;;6197528;23;20227;-94
2024/04/01 08:45:07;;;;;;;11.15;2.65;;;;;;;;;;6196489;23;20211;-95
2024/04/01 08:48:14;;;;;;;15.40;1.73;;;;;;;;;;6198439;23;20213;-94
2024/04/01 08:51:22;;;;;;;12.93;1.88;;;;;;;;;;6214285;23;20175;-93
2024/04/01 08:54:27;;;;;;;10.50;2.08;;;;;;;;;;6196916;23;20171;-94
2024/04/01 08:57:33;;;;;;;17.60;2.42;;;;;;;;;;6198727;23;20179;-92
2024/04/01 09:00:40;;;;;;;9.43;2.03;;;;;;;;;;6198067;23;20171;-94
2024/04/01 09:03:55;;;;;;;11.88;1.55;;;;;;;;;;6196494;23;20176;-93
2024/04/01 09:07:03;;;;;;;10.82;1.45;;;;;;;;;;6196499;23;20171;-93
2024/04/01 09:10:08;;;;;;;6.55;1.30;;;;;;;;;;6197272;23;20167;-93
2024/04/01 09:13:13;;;;;;;10.85;1.95;;;;;;;;;;6198151;23;20259;-92
2024/04/01 09:16:21;;;;;;;8.50;1.67;;;;;;;;;;6197787;23;20172;-92
2024/04/01 09:19:26;;;;;;;16.38;2.35;;;;;;;;;;6198830;23;20213;-93
2024/04/01 09:22:33;;;;;;;15.45;2.08;;;;;;;;;;6202242;23;20191;-92
2024/04/01 09:25:39;;;;;;;10.55;1.80;;;;;;;;;;6202304;23;20183;-93
2024/04/01 09:28:45;;;;;;;13.20;1.83;;;;;;;;;;6196987;23;20637;-94
2024/04/01 09:31:53;;;;;;;13.30;2.00;;;;;;;;;;6197645;23;20168;-93
2024/04/01 09:34:59;;;;;;;15.38;2.08;;;;;;;;;;6196432;23;20164;-91
2024/04/01 09:38:05;;;;;;;12.20;2.10;;;;;;;;;;6198952;23;20184;-92
2024/04/01 09:41:10;;;;;;;14.25;2.30;;;;;;;;;;6197703;23;20469;-92
2024/04/01 09:44:15;;;;;;;11.43;1.95;;;;;;;;;;6194266;23;20235;-93
2024/04/01 09:47:20;;;;;;;10.23;1.38;;;;;;;;;;6196638;23;20180;-93
2024/04/01 09:50:26;;;;;;;6.63;1.15;;;;;;;;;;6198451;23;20239;-93
2024/04/01 09:53:32;;;;;;;6.20;1.23;;;;;;;;;;6200648;23;20196;-91
2024/04/01 09:56:58;;;;;;;16.88;1.40;;;;;;;;;;6220347;23;20482;-92
2024/04/01 10:00:10;;;;;;;13.27;1.13;;;;;;;;;;6203338;23;20175;-91
2024/04/01 10:07:25;;;;;;;14.55;0.73;;;;;;;;;;6123369;23;20174;-93
2024/04/01 10:10:45;;;;;;;8.85;0.75;;;;;;;;;;6136828;23;20292;-92
2024/04/01 10:14:18;;;;;;;8.55;0.80;;;;;;;;;;6207430;23;20204;-95
2024/04/01 10:17:39;;;;;;;6.53;0.80;;;;;;;;;;6205640;23;20179;-95
2024/04/01 10:21:07;;;;;;;3.22;0.55;;;;;;;;;;6203220;23;20241;-94
2024/04/01 10:28:18;;;;;;;4.95;0.63;;;;;;;;;;6201610;23;20211;-93
2024/04/01 10:31:40;;;;;;;2.05;0.40;;;;;;;;;;6203213;23;20188;-94
2024/04/01 10:35:26;;;;;;;1.75;0.47;;;;;;;;;;6185640;23;20268;-94
2024/04/01 10:38:50;;;;;;;2.60;0.60;;;;;;;;;;6203898;23;20168;-95
2024/04/01 10:42:10;;;;;;;0.90;0.70;;;;;;;;;;6204248;23;20223;-93
2024/04/01 10:45:31;;;;;;;0.65;0.47;;;;;;;;;;6203526;23;20188;-94
2024/04/01 10:48:47;;;;;;;4.10;0.60;;;;;;;;;;6203539;23;20220;-94
2024/04/01 10:52:09;;;;;;;2.47;0.85;;;;;;;;;;6203148;23;20151;-95
2024/04/01 10:55:34;;;;;;;1.42;0.60;;;;;;;;;;6223454;23;20584;-94
2024/04/01 11:03:22;;;;;;;2.28;0.50;;;;;;;;;;6142261;23;20240;-92
2024/04/01 11:06:37;;;;;;;4.10;0.60;;;;;;;;;;6146581;23;20227;-94
2024/04/01 11:09:51;;;;;;;2.22;0.50;;;;;;;;;;6201507;23;20176;-93
2024/04/01 11:13:11;;;;;;;0.60;0.50;;;;;;;;;;6202644;23;20190;-93
2024/04/01 11:16:26;;;;;;;1.90;0.40;;;;;;;;;;6205468;23;20179;-91
2024/04/01 11:19:41;;;;;;;1.17;0.50;;;;;;;;;;6200648;23;20164;-94
2024/04/01 11:23:01;;;;;;;0.50;0.40;;;;;;;;;;6201798;23;20168;-93
2024/04/01 11:58:17;;;;;;;7.72;3.55;;;;;;;;;;6169695;23;20215;-92
2024/04/01 12:01:30;;;;;;;2.10;1.20;;;;;;;;;;6230273;23;20171;-93
2024/04/01 12:04:35;;;;;;;3.10;0.70;;;;;;;;;;6213079;23;20171;-93
2024/04/01 12:07:40;;;;;;;1.05;0.77;;;;;;;;;;6209213;23;20175;-94
2024/04/01 12:11:05;;;;;;;12.48;5.32;;;;;;;;;;6226666;23;20194;-94
2024/04/01 12:14:13;;;;;;;2.42;1.50;;;;;;;;;;6212219;23;20247;-93
2024/04/01 12:17:22;;;;;;;2.30;1.42;;;;;;;;;;6214123;23;20214;-96
2024/04/01 12:20:34;;;;;;;4.22;1.58;;;;;;;;;;6214589;23;20202;-94
2024/04/01 12:23:38;;;;;;;3.63;1.02;;;;;;;;;;6212894;23;20167;-96
2024/04/01 12:53:11;;;;;;;0.50;0.50;;;;;;;;;;6158454;23;20512;-92
2024/04/01 12:56:21;;;;;;;0.60;0.57;;;;;;;;;;6208961;23;20190;-93
2024/04/01 12:59:36;;;;;;;0.45;0.45;;;;;;;;;;6184464;23;20266;-90
2024/04/01 13:02:55;;;;;;;0.95;0.50;;;;;;;;;;6206631;23;20167;-90
2024/04/01 13:06:07;;;;;;;1.25;0.60;;;;;;;;;;6209795;23;20665;-93
2024/04/01 13:09:17;;;;;;;0.47;0.47;;;;;;;;;;6207642;23;20167;-92
2024/04/01 13:12:28;;;;;;;0.70;0.55;;;;;;;;;;6212017;23;20158;-95
2024/04/01 13:15:38;;;;;;;2.63;1.10;;;;;;;;;;6211446;23;20172;-93
2024/04/01 13:18:48;;;;;;;0.75;0.60;;;;;;;;;;6211535;23;20167;-94
2024/04/01 13:22:00;;;;;;;1.95;0.70;;;;;;;;;;6212747;23;20208;-94
2024/04/01 13:25:12;;;;;;;1.55;0.80;;;;;;;;;;6213286;23;20176;-94
2024/04/01 13:28:28;;;;;;;0.60;0.50;;;;;;;;;;6215968;23;20166;-93
2024/04/01 13:31:33;;;;;;;2.03;0.70;;;;;;;;;;6213554;23;20195;-92
2024/04/01 13:34:43;;;;;;;2.67;0.70;;;;;;;;;;6213427;23;20191;-92
2024/04/01 13:37:52;;;;;;;2.22;0.90;;;;;;;;;;6213612;23;20167;-93
2024/04/01 13:41:14;;;;;;;2.90;0.98;;;;;;;;;;6214238;23;20167;-92
2024/04/01 13:44:32;;;;;;;2.00;1.30;;;;;;;;;;6214240;23;20170;-92
2024/04/01 13:47:44;;;;;;;2.78;1.38;;;;;;;;;;6212700;23;20167;-92
2024/04/01 13:50:54;;;;;;;3.53;1.13;;;;;;;;;;6214595;23;20273;-93
2024/04/01 13:54:05;;;;;;;2.90;1.30;;;;;;;;;;6215379;23;20329;-94
2024/04/01 14:00:58;;;;;;;3.00;0.60;;;;;;;;;;6214868;23;20183;-92
2024/04/01 14:04:22;;;;;;;1.23;0.70;;;;;;;;;;6211198;23;20270;-93
2024/04/01 14:07:33;;;;;;;0.63;0.52;;;;;;;;;;6213832;23;20207;-92
2024/04/01 14:10:43;;;;;;;3.22;0.60;;;;;;;;;;6212394;23;20167;-92
2024/04/01 14:13:51;;;;;;;2.08;0.70;;;;;;;;;;6211992;23;20182;-93
2024/04/01 14:17:01;;;;;;;1.10;0.73;;;;;;;;;;6212625;23;20630;-93
2024/04/01 14:20:07;;;;;;;18.08;5.55;;;;;;;;;;6212054;23;20243;-92
2024/04/01 14:23:14;;;;;;;7.18;2.97;;;;;;;;;;6212338;23;20244;-92
2024/04/01 14:26:18;;;;;;;3.00;0.80;;;;;;;;;;6213976;23;20167;-92
2024/04/01 14:29:24;;;;;;;4.05;1.13;;;;;;;;;;6215617;23;20294;-93
2024/04/01 14:32:31;;;;;;;2.83;1.63;;;;;;;;;;6233658;23;20475;-94
2024/04/01 14:35:37;;;;;;;5.40;2.20;;;;;;;;;;6213505;23;20171;-92
2024/04/01 14:38:41;;;;;;;1.85;0.90;;;;;;;;;;6214110;23;20229;-93
2024/04/01 14:41:46;;;;;;;7.40;2.97;;;;;;;;;;6215362;23;20163;-94
2024/04/01 14:44:51;;;;;;;5.63;3.90;;;;;;;;;;6213337;23;20212;-93
2024/04/01 14:47:58;;;;;;;3.00;1.40;;;;;;;;;;6213216;23;20255;-94
2024/04/01 14:51:02;;;;;;;5.03;1.60;;;;;;;;;;6212810;23;20179;-91
2024/04/01 14:54:08;;;;;;;8.25;4.70;;;;;;;;;;6208611;23;20234;-93
2024/04/01 14:57:12;;;;;;;9.68;4.03;;;;;;;;;;6227700;23;20150;-93
2024/04/01 15:00:18;;;;;;;1.35;0.70;;;;;;;;;;6210145;23;20162;-93
2024/04/01 15:03:27;;;;;;;1.52;0.80;;;;;;;;;;6209304;23;20486;-91
2024/04/01 15:06:32;;;;;;;2.53;1.20;;;;;;;;;;6210504;23;20168;-91
2024/04/01 15:09:36;;;;;;;3.65;1.20;;;;;;;;;;6210501;23;20167;-92
2024/04/01 15:12:42;;;;;;;1.08;0.70;;;;;;;;;;6208440;23;20225;-92
2024/04/01 15:15:46;;;;;;;3.35;0.90;;;;;;;;;;6208337;23;20226;-91
2024/04/01 15:18:53;;;;;;;2.33;0.98;;;;;;;;;;6211401;23;20174;-93
2024/04/01 15:21:57;;;;;;;1.00;0.75;;;;;;;;;;6211707;23;20229;-91
2024/04/01 15:25:04;;;;;;;1.42;1.00;;;;;;;;;;6210170;23;20167;-93
2024/04/01 15:28:08;;;;;;;1.00;0.70;;;;;;;;;;6211299;23;20167;-93
2024/04/01 15:31:17;;;;;;;0.52;0.50;;;;;;;;;;6211567;23;20231;-93
2024/04/01 15:34:23;;;;;;;1.17;0.85;;;;;;;;;;6214361;23;20199;-92
2024/04/01 15:37:31;;;;;;;0.98;0.70;;;;;;;;;;6207489;23;20162;-91
2024/04/01 15:40:36;;;;;;;1.00;0.70;;;;;;;;;;6208431;23;20200;-93
2024/04/01 15:43:41;;;;;;;1.55;1.00;;;;;;;;;;6210914;23;20179;-93
2024/04/01 15:46:46;;;;;;;3.03;0.68;;;;;;;;;;6207278;23;20167;-92
2024/04/01 15:49:53;;;;;;;1.73;0.90;;;;;;;;;;6210586;23;20191;-92
2024/04/01 15:52:57;;;;;;;2.35;1.20;;;;;;;;;;6208177;23;20179;-94
2024/04/01 15:56:02;;;;;;;7.00;3.08;;;;;;;;;;6227324;23;20166;-92
2024/04/01 15:59:07;;;;;;;190.10;64.20;;;;;;;;;;6224933;23;20610;-93
2024/04/01 16:02:11;;;;;;;1.45;1.00;;;;;;;;;;6212394;23;20155;-92
2024/04/01 16:05:18;;;;;;;2.75;1.20;;;;;;;;;;6228447;23;20163;-93
2024/04/01 16:08:23;;;;;;;1.23;1.05;;;;;;;;;;6225150;23;20175;-92
2024/04/01 16:11:29;;;;;;;4.10;1.20;;;;;;;;;;6211282;23;20216;-92
2024/04/01 16:14:33;;;;;;;1.52;1.00;;;;;;;;;;6207493;23;20195;-92
2024/04/01 16:17:38;;;;;;;2.20;1.40;;;;;;;;;;6226971;23;20154;-93
2024/04/01 16:20:45;;;;;;;3.55;1.20;;;;;;;;;;6226880;23;20167;-93
2024/04/01 16:23:51;;;;;;;1.75;0.88;;;;;;;;;;6212620;23;20163;-92
2024/04/01 16:26:59;;;;;;;1.33;0.90;;;;;;;;;;6226857;23;20163;-91
2024/04/01 16:30:04;;;;;;;2.05;1.35;;;;;;;;;;6228556;23;20168;-92
2024/04/01 16:33:10;;;;;;;1.42;0.85;;;;;;;;;;6210254;23;20179;-93
2024/04/01 16:36:15;;;;;;;1.65;1.00;;;;;;;;;;6227278;23;20167;-92
2024/04/01 16:39:21;;;;;;;2.03;1.00;;;;;;;;;;6232090;23;20294;-93
2024/04/01 16:42:31;;;;;;;3.28;1.00;;;;;;;;;;6210582;23;20210;-92
2024/04/01 16:45:37;;;;;;;2.88;1.08;;;;;;;;;;6209550;23;20279;-93
2024/04/01 16:48:42;;;;;;;1.23;0.82;;;;;;;;;;6226655;23;20630;-93
2024/04/01 16:51:49;;;;;;;1.60;1.00;;;;;;;;;;6210284;23;20155;-93
2024/04/01 16:54:54;;;;;;;3.45;1.20;;;;;;;;;;6230513;23;20288;-92
2024/04/01 16:57:59;;;;;;;6.00;1.42;;;;;;;;;;6212299;23;20190;-92
2024/04/01 17:01:06;;;;;;;2.10;1.15;;;;;;;;;;6229639;23;20167;-93
2024/04/01 17:04:11;;;;;;;3.28;1.15;;;;;;;;;;6212823;23;20210;-92
2024/04/01 17:07:16;;;;;;;2.55;1.38;;;;;;;;;;6229863;23;20170;-91
2024/04/01 17:10:22;;;;;;;71.15;40.80;;;;;;;;;;6229284;23;20171;-91
2024/04/01 17:13:26;;;;;;;4.85;2.40;;;;;;;;;;6210635;23;20167;-92
2024/04/01 17:16:31;;;;;;;1.83;1.13;;;;;;;;;;6227504;23;20179;-92
2024/04/01 17:19:37;;;;;;;2.08;1.10;;;;;;;;;;6228388;23;20220;-90
2024/04/01 17:22:45;;;;;;;4.80;1.50;;;;;;;;;;6211539;23;20208;-92
2024/04/01 17:25:49;;;;;;;3.83;1.77;;;;;;;;;;6230537;23;20170;-92
2024/04/01 17:28:58;;;;;;;3.45;1.40;;;;;;;;;;6232550;23;20210;-92
2024/04/01 17:32:03;;;;;;;3.33;1.35;;;;;;;;;;6214480;23;20235;-91
2024/04/01 17:35:12;;;;;;;2.00;1.13;;;;;;;;;;6214025;23;20518;-93
2024/04/01 17:38:18;;;;;;;1.52;1.13;;;;;;;;;;6213457;23;20158;-92
2024/04/01 17:41:28;;;;;;;3.75;1.30;;;;;;;;;;6236300;23;20171;-92
2024/04/01 17:44:33;;;;;;;1.38;1.10;;;;;;;;;;6233659;23;20614;-92
2024/04/01 17:47:40;;;;;;;2.25;1.50;;;;;;;;;;6231461;23;20167;-91
2024/04/01 17:50:45;;;;;;;1.67;1.15;;;;;;;;;;6232348;23;20175;-92
2024/04/01 17:53:51;;;;;;;2.90;1.35;;;;;;;;;;6229963;23;20210;-91
2024/04/01 17:56:56;;;;;;;2.97;1.38;;;;;;;;;;6231909;23;20166;-91
2024/04/01 18:00:05;;;;;;;3.17;1.10;;;;;;;;;;6215127;23;20212;-91
2024/04/01 18:03:23;;;;;;;3.13;1.60;;;;;;;;;;6232750;23;20379;-93
2024/04/01 18:06:27;;;;;;;2.22;1.20;;;;;;;;;;6230866;23;20180;-93
2024/04/01 18:09:35;;;;;;;3.92;1.40;;;;;;;;;;6230846;23;20167;-94
2024/04/01 18:12:40;;;;;;;2.60;1.30;;;;;;;;;;6230770;23;20155;-93
2024/04/01 18:15:46;;;;;;;10.23;2.10;;;;;;;;;;6230868;23;20174;-91
2024/04/01 18:18:51;;;;;;;2.50;1.52;;;;;;;;;;6231134;23;20242;-93
2024/04/01 18:21:56;;;;;;;4.40;2.38;;;;;;;;;;6211919;23;20241;-91
2024/04/01 18:25:04;;;;;;;5.75;2.65;;;;;;;;;;6230153;23;20174;-92
2024/04/01 18:28:09;;;;;;;2.75;1.48;;;;;;;;;;6231658;23;20167;-92
2024/04/01 18:31:19;;;;;;;2.70;1.60;;;;;;;;;;6229604;23;20270;-92
2024/04/01 18:34:24;;;;;;;3.45;1.65;;;;;;;;;;6213897;23;20178;-93
2024/04/01 18:37:35;;;;;;;4.50;2.20;;;;;;;;;;6212381;23;20222;-92
2024/04/01 18:40:47;;;;;;;5.28;2.90;;;;;;;;;;6230800;23;20166;-92
2024/04/01 18:43:52;;;;;;;5.53;2.40;;;;;;;;;;6230174;23;20175;-92
2024/04/01 18:46:58;;;;;;;6.10;2.63;;;;;;;;;;6230302;23;20175;-93
2024/04/01 18:50:08;;;;;;;5.93;2.40;;;;;;;;;;6232611;23;20275;-92
2024/04/01 18:53:15;;;;;;;3.15;1.88;;;;;;;;;;6231049;23;20190;-93
2024/04/01 18:56:22;;;;;;;6.03;2.80;;;;;;;;;;6231031;23;20176;-93
2024/04/01 18:59:28;;;;;;;5.30;2.80;;;;;;;;;;6229218;23;20162;-91
2024/04/01 19:02:32;;;;;;;4.43;2.22;;;;;;;;;;6228298;23;20210;-91
2024/04/01 19:05:37;;;;;;;8.40;3.88;;;;;;;;;;6228070;23;20182;-92
2024/04/01 19:08:41;;;;;;;7.60;3.38;;;;;;;;;;6208681;23;20174;-91
2024/04/01 19:11:48;;;;;;;5.03;1.83;;;;;;;;;;6228948;23;20176;-93
2024/04/01 19:14:52;;;;;;;8.43;3.80;;;;;;;;;;6230284;23;20271;-90
2024/04/01 19:17:58;;;;;;;4.47;1.80;;;;;;;;;;6230818;23;20178;-91
2024/04/01 19:21:06;;;;;;;6.50;3.13;;;;;;;;;;6211449;23;20182;-92
2024/04/01 19:24:11;;;;;;;6.07;3.10;;;;;;;;;;6228638;23;20172;-91
2024/04/01 19:27:18;;;;;;;4.18;1.85;;;;;;;;;;6230591;23;20172;-91
2024/04/01 19:30:22;;;;;;;6.75;3.25;;;;;;;;;;6212556;23;20198;-91
2024/04/01 19:33:28;;;;;;;5.63;2.10;;;;;;;;;;6229985;23;20167;-91
2024/04/01 19:36:32;;;;;;;1.92;1.20;;;;;;;;;;6229262;23;20487;-93
2024/04/01 19:39:38;;;;;;;1.67;1.13;;;;;;;;;;6228975;23;20183;-92
2024/04/01 19:42:48;;;;;;;1.73;0.80;;;;;;;;;;6229548;23;20179;-90
2024/04/01 22:00:33;;;;;;;3.08;1.33;;;;;;;;;;6176553;22;20195;-89
2024/04/01 22:03:38;;;;;;;2.70;1.15;;;;;;;;;;6186338;23;20175;-89
2024/04/01 22:06:43;;;;;;;2.13;1.20;;;;;;;;;;6186036;23;20235;-89